Time;durP1;ratioP1;P1;durP2;ratioP2;P2;SDS_P1;SDS_P2;PMS_P1;PMS_P2;Temp;Humidity;BMP_temperature;BMP_pressure;BME280_temperature;BME280_humidity;BME280_pressure;Samples;Min_cycle;Max_cycle;Signal;HPM_P1;HPM_P2
2022/06/11 00:01:46;;;;;;;6.13;1.60;;;18.30;99.90;;;;;;4962913;28;20039;-85
2022/06/11 00:04:20;;;;;;;5.55;1.48;;;18.30;99.90;;;;;;4969346;28;20085;-86
2022/06/11 00:06:50;;;;;;;6.30;1.77;;;18.20;99.90;;;;;;4943586;29;20036;-85
2022/06/11 00:09:17;;;;;;;5.10;2.03;;;18.20;99.90;;;;;;4956199;28;20052;-85
2022/06/11 00:11:48;;;;;;;4.93;1.60;;;18.10;99.90;;;;;;4974440;28;20031;-85
2022/06/11 00:14:14;;;;;;;1.75;1.20;;;18.10;99.90;;;;;;4963995;28;20035;-85
2022/06/11 00:16:40;;;;;;;4.07;1.52;;;18.10;99.90;;;;;;4954751;28;20041;-85
2022/06/11 00:19:07;;;;;;;4.85;2.13;;;18.10;99.90;;;;;;4963546;28;20027;-85
2022/06/11 00:21:39;;;;;;;7.53;1.67;;;18.00;99.90;;;;;;4957891;28;20020;-85
2022/06/11 00:24:06;;;;;;;8.13;2.00;;;18.00;99.90;;;;;;4954790;29;20074;-86
2022/06/11 00:26:33;;;;;;;9.15;2.30;;;18.00;99.90;;;;;;4952825;28;20118;-85
2022/06/11 00:28:59;;;;;;;8.52;2.47;;;17.90;99.90;;;;;;4936220;28;20035;-84
2022/06/11 00:31:25;;;;;;;2.53;1.50;;;17.90;99.90;;;;;;4950275;28;20031;-84
2022/06/11 00:34:03;;;;;;;6.85;2.00;;;17.80;99.90;;;;;;4954068;29;20034;-84
2022/06/11 00:36:39;;;;;;;5.35;1.75;;;17.80;99.90;;;;;;4954912;29;20374;-84
2022/06/11 00:39:06;;;;;;;5.25;2.15;;;17.80;99.90;;;;;;4953588;28;20054;-85
2022/06/11 00:41:35;;;;;;;5.10;1.83;;;17.70;99.90;;;;;;4950745;29;20054;-85
2022/06/11 00:44:06;;;;;;;7.90;2.67;;;17.70;99.90;;;;;;4937372;29;20066;-84
2022/06/11 00:46:34;;;;;;;6.65;1.77;;;17.60;99.90;;;;;;4952404;28;20031;-85
2022/06/11 00:49:01;;;;;;;6.82;2.25;;;17.50;99.90;;;;;;4954493;29;20531;-84
2022/06/11 00:52:07;;;;;;;4.07;1.63;;;17.50;99.90;;;;;;4954864;28;20031;-83
2022/06/11 00:54:34;;;;;;;3.08;1.23;;;17.40;99.90;;;;;;4944779;29;20110;-84
2022/06/11 00:57:13;;;;;;;4.60;1.65;;;17.30;99.90;;;;;;4948476;28;20510;-84
2022/06/11 00:59:45;;;;;;;7.72;1.90;;;17.30;99.90;;;;;;4945471;29;20027;-84
2022/06/11 01:02:11;;;;;;;11.27;2.63;;;17.30;99.90;;;;;;4942321;28;20055;-84
2022/06/11 01:04:54;;;;;;;6.82;1.98;;;17.20;99.90;;;;;;4937450;28;20031;-84
2022/06/11 01:07:38;;;;;;;9.93;1.75;;;17.10;99.90;;;;;;4948679;28;20118;-84
2022/06/11 01:10:32;;;;;;;6.50;2.08;;;17.10;99.90;;;;;;4953813;29;20032;-84
2022/06/11 01:13:33;;;;;;;9.40;2.58;;;17.10;99.90;;;;;;4936788;29;20047;-84
2022/06/11 01:16:17;;;;;;;5.72;1.70;;;17.00;99.90;;;;;;4944613;28;20015;-85
2022/06/11 01:18:48;;;;;;;6.10;1.80;;;16.90;99.90;;;;;;4955333;28;20019;-84
2022/06/11 01:21:35;;;;;;;6.07;2.08;;;16.90;99.90;;;;;;4947416;28;20031;-85
2022/06/11 01:24:19;;;;;;;4.53;1.60;;;16.90;99.90;;;;;;4951350;28;20079;-84
2022/06/11 01:26:55;;;;;;;6.38;2.33;;;16.90;99.90;;;;;;4960530;28;20027;-84
2022/06/11 01:29:38;;;;;;;5.15;1.65;;;16.80;99.90;;;;;;4939176;29;20031;-85
2022/06/11 01:32:18;;;;;;;8.27;2.05;;;16.80;99.90;;;;;;4957703;29;20106;-85
2022/06/11 01:35:16;;;;;;;5.22;1.85;;;16.70;99.90;;;;;;4955401;28;20038;-84
2022/06/11 01:37:55;;;;;;;4.43;1.67;;;16.70;99.90;;;;;;4960400;28;20028;-84
2022/06/11 01:40:27;;;;;;;3.70;1.60;;;16.80;99.90;;;;;;4954836;29;20051;-84
2022/06/11 01:43:00;;;;;;;11.38;2.03;;;16.80;99.90;;;;;;4957985;28;20034;-84
2022/06/11 01:45:49;;;;;;;6.70;1.60;;;16.80;99.90;;;;;;4958912;28;20118;-84
2022/06/11 01:48:19;;;;;;;6.13;2.08;;;16.80;99.90;;;;;;4957839;29;20027;-84
2022/06/11 01:51:22;;;;;;;3.83;1.80;;;16.80;99.90;;;;;;4947448;29;20791;-84
2022/06/11 01:53:59;;;;;;;3.78;2.00;;;16.80;99.90;;;;;;4957266;28;20473;-84
2022/06/11 01:56:36;;;;;;;9.23;1.95;;;16.80;99.90;;;;;;4950406;29;20034;-84
2022/06/11 01:59:30;;;;;;;2.67;1.30;;;16.80;99.90;;;;;;4928470;29;20020;-84
2022/06/11 02:02:24;;;;;;;6.75;1.83;;;16.70;99.90;;;;;;4961465;28;20047;-83
2022/06/11 02:05:02;;;;;;;7.78;2.08;;;16.70;99.90;;;;;;4956586;29;20027;-84
2022/06/11 02:08:13;;;;;;;6.57;2.15;;;16.60;99.90;;;;;;4952187;29;20053;-85
2022/06/11 02:10:43;;;;;;;6.38;1.75;;;16.60;99.90;;;;;;4937975;29;20448;-84
2022/06/11 02:13:18;;;;;;;9.18;2.00;;;16.60;99.90;;;;;;4932329;29;20213;-83
2022/06/11 02:16:15;;;;;;;6.55;2.00;;;16.70;99.90;;;;;;4955914;28;20027;-83
2022/06/11 02:18:45;;;;;;;8.35;2.83;;;16.60;99.90;;;;;;4974207;28;20023;-84
2022/06/11 02:21:24;;;;;;;5.95;1.52;;;16.60;99.90;;;;;;4972487;28;20031;-83
2022/06/11 02:24:05;;;;;;;3.20;1.80;;;16.60;99.90;;;;;;4956191;29;20038;-84
2022/06/11 02:26:36;;;;;;;10.25;2.03;;;16.50;99.90;;;;;;4958104;28;20027;-84
2022/06/11 02:29:18;;;;;;;8.38;1.75;;;16.50;99.90;;;;;;4953185;28;20046;-83
2022/06/11 02:31:48;;;;;;;3.13;1.73;;;16.40;99.90;;;;;;4949990;29;20395;-83
2022/06/11 02:34:16;;;;;;;3.05;1.90;;;16.40;99.90;;;;;;4954823;29;20023;-83
2022/06/11 02:37:05;;;;;;;6.63;1.88;;;16.30;99.90;;;;;;4956727;28;20086;-83
2022/06/11 02:39:35;;;;;;;6.07;1.90;;;16.30;99.90;;;;;;4956083;28;20027;-84
2022/06/11 02:42:08;;;;;;;5.13;2.08;;;16.30;99.90;;;;;;4966528;28;20048;-84
2022/06/11 02:44:35;;;;;;;9.52;2.50;;;16.30;99.90;;;;;;4956768;28;20034;-83
2022/06/11 02:47:00;;;;;;;6.07;1.67;;;16.20;99.90;;;;;;4965224;28;20061;-83
2022/06/11 02:49:30;;;;;;;5.25;2.05;;;16.20;99.90;;;;;;4947170;28;20054;-83
2022/06/11 02:52:06;;;;;;;5.75;2.35;;;16.10;99.90;;;;;;4962585;28;20041;-83
2022/06/11 02:54:31;;;;;;;4.25;1.92;;;16.00;99.90;;;;;;4946318;28;20026;-85
2022/06/11 02:56:59;;;;;;;4.35;1.70;;;16.00;99.90;;;;;;4972362;28;20039;-85
2022/06/11 02:59:53;;;;;;;4.68;2.00;;;15.90;99.90;;;;;;4958299;28;20023;-83
2022/06/11 03:02:20;;;;;;;14.25;2.63;;;15.90;99.90;;;;;;4963063;28;21653;-83
2022/06/11 03:04:51;;;;;;;5.53;2.05;;;15.80;99.90;;;;;;4937650;28;20086;-84
2022/06/11 03:07:18;;;;;;;8.05;2.33;;;15.80;99.90;;;;;;4965979;28;20028;-83
2022/06/11 03:09:44;;;;;;;8.30;1.95;;;15.70;99.90;;;;;;4950874;28;20031;-83
2022/06/11 03:12:19;;;;;;;7.43;2.00;;;15.70;99.90;;;;;;4937255;29;20091;-84
2022/06/11 03:14:45;;;;;;;5.05;1.67;;;15.70;99.90;;;;;;4949483;28;20058;-83
2022/06/11 03:17:19;;;;;;;5.70;1.67;;;15.70;99.90;;;;;;4956955;28;20502;-83
2022/06/11 03:19:45;;;;;;;3.60;1.92;;;15.60;99.90;;;;;;4962841;28;20019;-83
2022/06/11 03:22:10;;;;;;;4.32;2.10;;;15.70;99.90;;;;;;4953621;29;20115;-84
2022/06/11 03:24:38;;;;;;;6.30;1.90;;;15.70;99.90;;;;;;4949494;28;20046;-83
2022/06/11 03:27:05;;;;;;;5.07;1.90;;;15.70;99.90;;;;;;4950861;29;20034;-83
2022/06/11 03:29:30;;;;;;;5.60;1.80;;;15.70;99.90;;;;;;4962195;28;20118;-83
2022/06/11 03:31:57;;;;;;;5.88;1.90;;;15.70;99.90;;;;;;4945411;28;20123;-84
2022/06/11 03:34:23;;;;;;;4.63;1.73;;;15.60;99.90;;;;;;4944622;28;20045;-83
2022/06/11 03:36:52;;;;;;;7.47;2.45;;;15.60;99.90;;;;;;4959044;28;20475;-84
2022/06/11 03:39:22;;;;;;;3.65;1.77;;;15.60;99.90;;;;;;4954454;29;20022;-83
2022/06/11 03:41:49;;;;;;;8.82;2.47;;;15.60;99.90;;;;;;4947706;28;20130;-83
2022/06/11 03:44:15;;;;;;;5.82;2.42;;;15.60;99.90;;;;;;4955396;28;20525;-83
2022/06/11 03:46:46;;;;;;;4.90;1.85;;;15.60;99.90;;;;;;4952490;28;20032;-83
2022/06/11 03:49:13;;;;;;;6.20;2.17;;;15.60;99.90;;;;;;4951856;28;20023;-83
2022/06/11 03:51:39;;;;;;;5.85;2.15;;;15.60;99.90;;;;;;4952929;28;20030;-83
2022/06/11 03:54:32;;;;;;;5.85;2.10;;;15.60;99.90;;;;;;4973401;28;20027;-83
2022/06/11 03:56:59;;;;;;;4.68;1.67;;;15.60;99.90;;;;;;4942004;29;20439;-83
2022/06/11 03:59:24;;;;;;;5.10;1.65;;;15.60;99.90;;;;;;4937765;29;20086;-83
2022/06/11 04:01:50;;;;;;;7.80;2.40;;;15.60;99.90;;;;;;4936697;29;20040;-83
2022/06/11 04:04:20;;;;;;;6.32;2.10;;;15.60;99.90;;;;;;4932000;29;20042;-83
2022/06/11 04:06:56;;;;;;;10.43;2.42;;;15.60;99.90;;;;;;4953967;28;20027;-83
2022/06/11 04:09:31;;;;;;;5.38;1.92;;;15.60;99.90;;;;;;4947202;28;20028;-84
2022/06/11 04:11:57;;;;;;;7.50;2.10;;;15.70;99.90;;;;;;4955719;28;20027;-83
2022/06/11 04:14:32;;;;;;;6.80;2.60;;;15.70;99.90;;;;;;4936884;28;20034;-83
2022/06/11 04:17:36;;;;;;;4.95;2.10;;;15.80;99.90;;;;;;4943818;29;20031;-83
2022/06/11 04:20:13;;;;;;;4.95;2.00;;;15.90;99.90;;;;;;4892407;29;20040;-83
2022/06/11 04:22:39;;;;;;;9.90;2.60;;;15.90;99.90;;;;;;4890377;29;20051;-83
2022/06/11 04:25:06;;;;;;;7.50;2.10;;;16.10;99.90;;;;;;4895415;29;20044;-84
2022/06/11 04:27:44;;;;;;;13.80;1.92;;;16.20;99.90;;;;;;4895019;29;20040;-83
2022/06/11 04:30:12;;;;;;;5.97;1.90;;;16.40;99.90;;;;;;4879549;29;20124;-83
2022/06/11 04:32:46;;;;;;;4.55;1.73;;;16.60;99.90;;;;;;4954367;29;20527;-84
2022/06/11 04:35:12;;;;;;;7.22;1.80;;;16.70;99.90;;;;;;4961966;28;20034;-83
2022/06/11 04:37:38;;;;;;;7.70;2.17;;;16.90;99.90;;;;;;4950465;28;20027;-84
2022/06/11 04:40:07;;;;;;;12.27;2.45;;;17.10;99.90;;;;;;4962221;28;20033;-83
2022/06/11 04:42:34;;;;;;;10.55;2.22;;;17.30;99.90;;;;;;4963819;28;20023;-84
2022/06/11 04:45:00;;;;;;;8.93;2.20;;;17.40;99.90;;;;;;4952723;28;20038;-85
2022/06/11 04:47:32;;;;;;;7.40;1.83;;;17.60;99.90;;;;;;4963655;28;20039;-84
2022/06/11 04:50:00;;;;;;;10.48;2.80;;;17.80;99.90;;;;;;4928051;29;20023;-84
2022/06/11 04:52:26;;;;;;;8.55;2.03;;;18.00;99.90;;;;;;4935379;29;20468;-84
2022/06/11 04:55:05;;;;;;;15.32;2.58;;;18.20;99.90;;;;;;4926773;29;20027;-84
2022/06/11 04:57:31;;;;;;;7.90;1.77;;;18.50;99.90;;;;;;4955858;28;20031;-85
2022/06/11 04:59:57;;;;;;;8.20;2.10;;;18.60;99.90;;;;;;4958001;28;20382;-84
2022/06/11 05:02:22;;;;;;;10.48;2.10;;;18.70;99.90;;;;;;4954988;28;20039;-84
2022/06/11 05:04:48;;;;;;;17.92;2.58;;;18.80;99.90;;;;;;4945403;28;20423;-84
2022/06/11 05:07:15;;;;;;;11.73;2.28;;;18.80;99.90;;;;;;4962648;28;20071;-84
2022/06/11 05:09:41;;;;;;;7.07;1.50;;;19.00;99.90;;;;;;4956460;28;20036;-84
2022/06/11 05:12:07;;;;;;;12.32;2.60;;;19.00;99.90;;;;;;4954568;29;20078;-84
2022/06/11 05:14:34;;;;;;;11.13;1.88;;;19.00;99.90;;;;;;4940085;29;20032;-85
2022/06/11 05:17:15;;;;;;;5.20;1.67;;;19.00;99.90;;;;;;4946215;28;20023;-84
2022/06/11 05:19:40;;;;;;;11.52;2.03;;;19.10;99.90;;;;;;4954524;29;20023;-84
2022/06/11 05:22:06;;;;;;;10.55;1.92;;;19.10;99.90;;;;;;4953061;29;20106;-85
2022/06/11 05:24:42;;;;;;;9.05;2.15;;;19.10;99.90;;;;;;4951205;28;20043;-85
2022/06/11 05:27:14;;;;;;;11.85;2.30;;;19.10;99.90;;;;;;4952031;28;20031;-85
2022/06/11 05:29:52;;;;;;;10.18;2.10;;;19.20;99.90;;;;;;4951749;29;20486;-84
2022/06/11 05:32:19;;;;;;;8.63;2.35;;;19.20;99.90;;;;;;4952078;28;20518;-84
2022/06/11 05:34:45;;;;;;;12.15;2.50;;;19.20;99.90;;;;;;4929246;28;20117;-84
2022/06/11 05:37:27;;;;;;;8.45;1.80;;;19.20;99.90;;;;;;4959522;28;20102;-85
2022/06/11 05:39:53;;;;;;;4.57;1.80;;;19.20;99.90;;;;;;4955556;28;20027;-84
2022/06/11 05:42:21;;;;;;;5.28;2.03;;;19.30;99.90;;;;;;4935535;28;20026;-84
2022/06/11 05:44:47;;;;;;;3.85;1.63;;;19.20;99.90;;;;;;4941160;29;20028;-84
2022/06/11 05:47:16;;;;;;;9.00;1.60;;;19.20;99.90;;;;;;4943109;28;20528;-84
2022/06/11 05:49:46;;;;;;;5.10;1.73;;;19.20;99.90;;;;;;4917702;29;20027;-84
2022/06/11 05:52:16;;;;;;;11.57;2.70;;;19.20;99.90;;;;;;4948280;28;20027;-84
2022/06/11 05:54:43;;;;;;;6.57;1.95;;;19.20;99.90;;;;;;4951292;28;20050;-84
2022/06/11 05:57:15;;;;;;;8.98;1.83;;;19.10;99.90;;;;;;4938333;28;20471;-84
2022/06/11 05:59:45;;;;;;;4.60;1.33;;;19.10;99.90;;;;;;4968337;28;20029;-84
2022/06/11 06:02:13;;;;;;;4.53;1.63;;;19.10;99.90;;;;;;4968812;28;20027;-84
2022/06/11 06:04:39;;;;;;;11.40;2.15;;;19.00;99.90;;;;;;4951714;28;20483;-84
2022/06/11 06:07:06;;;;;;;9.68;2.05;;;19.00;99.90;;;;;;4953656;28;20033;-84
2022/06/11 06:09:32;;;;;;;5.38;1.80;;;19.10;99.90;;;;;;4952512;28;20038;-84
2022/06/11 06:11:58;;;;;;;8.75;1.58;;;19.10;99.90;;;;;;4959432;28;20032;-84
2022/06/11 06:14:23;;;;;;;11.50;2.40;;;19.20;99.90;;;;;;4935240;29;20477;-84
2022/06/11 06:16:49;;;;;;;13.68;2.65;;;19.30;99.90;;;;;;4965090;28;20038;-84
2022/06/11 06:19:15;;;;;;;9.57;2.55;;;19.30;99.90;;;;;;4950122;28;20639;-84
2022/06/11 06:21:40;;;;;;;7.78;1.55;;;19.40;99.90;;;;;;4959464;28;20471;-85
2022/06/11 06:24:06;;;;;;;9.15;2.28;;;19.40;99.90;;;;;;4965121;28;20039;-85
2022/06/11 06:26:32;;;;;;;9.75;1.80;;;19.50;99.90;;;;;;4958327;28;20038;-84
2022/06/11 06:28:58;;;;;;;5.40;1.83;;;19.60;99.90;;;;;;4955874;28;20034;-85
2022/06/11 06:31:24;;;;;;;6.22;1.48;;;19.60;99.90;;;;;;4956844;29;20498;-85
2022/06/11 06:33:51;;;;;;;9.90;2.85;;;19.80;99.90;;;;;;4955342;28;20106;-85
2022/06/11 06:36:17;;;;;;;8.57;2.65;;;19.90;99.90;;;;;;4944979;28;20542;-85
2022/06/11 06:38:44;;;;;;;5.57;1.67;;;20.00;99.90;;;;;;4957699;28;20038;-84
2022/06/11 06:41:11;;;;;;;10.38;2.47;;;20.00;99.90;;;;;;4939882;28;20045;-85
2022/06/11 06:43:43;;;;;;;5.93;1.60;;;20.10;99.90;;;;;;4942422;28;20046;-84
2022/06/11 06:46:09;;;;;;;9.73;2.25;;;20.10;99.90;;;;;;4963029;28;20497;-85
2022/06/11 06:48:36;;;;;;;9.55;2.40;;;20.20;99.90;;;;;;4956984;29;20027;-85
2022/06/11 06:51:02;;;;;;;7.45;1.35;;;20.20;99.90;;;;;;4939351;29;20086;-85
2022/06/11 06:53:28;;;;;;;11.80;2.20;;;20.30;99.90;;;;;;4938435;29;20032;-84
2022/06/11 06:55:55;;;;;;;8.32;2.25;;;20.40;99.90;;;;;;4958888;28;20019;-85
2022/06/11 06:58:20;;;;;;;8.00;2.15;;;20.50;99.90;;;;;;4956153;29;20396;-85
2022/06/11 07:00:46;;;;;;;8.27;2.00;;;20.60;99.90;;;;;;4938656;29;20050;-85
2022/06/11 07:03:13;;;;;;;9.05;2.17;;;20.60;99.90;;;;;;4956050;29;20035;-86
2022/06/11 07:05:39;;;;;;;8.40;1.70;;;20.70;99.90;;;;;;4956029;29;20168;-85
2022/06/11 07:08:08;;;;;;;7.82;2.13;;;20.70;99.90;;;;;;4954237;29;20534;-84
2022/06/11 07:10:34;;;;;;;8.10;1.88;;;20.70;99.90;;;;;;4957028;28;20024;-84
2022/06/11 07:13:01;;;;;;;9.90;2.10;;;20.80;99.90;;;;;;4936128;28;20051;-84
2022/06/11 07:15:27;;;;;;;4.60;1.95;;;20.90;99.90;;;;;;4952660;28;20039;-85
2022/06/11 07:18:10;;;;;;;8.25;2.35;;;20.90;99.90;;;;;;4938520;29;20078;-85
2022/06/11 07:20:36;;;;;;;5.03;1.65;;;21.00;99.90;;;;;;4925376;29;20024;-85
2022/06/11 07:23:09;;;;;;;8.82;1.85;;;21.00;99.90;;;;;;4941592;28;20027;-85
2022/06/11 07:25:36;;;;;;;10.10;2.22;;;21.10;99.90;;;;;;4950464;28;20360;-85
2022/06/11 07:28:08;;;;;;;12.38;4.07;;;21.10;99.90;;;;;;4946198;28;20038;-86
2022/06/11 07:30:37;;;;;;;9.85;2.67;;;21.20;99.90;;;;;;4942108;28;20031;-87
2022/06/11 07:33:15;;;;;;;7.80;1.92;;;21.30;99.90;;;;;;4955158;28;20487;-86
2022/06/11 07:35:41;;;;;;;8.35;2.10;;;21.30;99.90;;;;;;4937748;28;20030;-85
2022/06/11 07:38:11;;;;;;;11.00;1.70;;;21.40;99.90;;;;;;4948380;28;20491;-89
2022/06/11 07:40:43;;;;;;;5.63;1.77;;;21.50;99.90;;;;;;4950688;29;20030;-86
2022/06/11 07:43:08;;;;;;;10.75;2.13;;;21.70;99.90;;;;;;4955684;29;20465;-87
2022/06/11 07:45:39;;;;;;;6.35;1.98;;;21.70;99.90;;;;;;4955337;29;20102;-87
2022/06/11 07:48:05;;;;;;;7.80;1.58;;;21.70;99.90;;;;;;4955388;29;20364;-87
2022/06/11 07:50:51;;;;;;;8.57;2.10;;;21.80;99.90;;;;;;4955258;29;20058;-86
2022/06/11 07:53:18;;;;;;;8.85;2.70;;;22.00;99.90;;;;;;4954869;29;20043;-87
2022/06/11 07:55:45;;;;;;;8.15;2.17;;;21.90;99.90;;;;;;4938109;29;20083;-87
2022/06/11 07:58:14;;;;;;;8.98;1.80;;;22.00;99.90;;;;;;4938045;29;20110;-87
2022/06/11 08:00:47;;;;;;;7.93;2.53;;;21.90;99.90;;;;;;4955147;29;20138;-88
2022/06/11 08:03:13;;;;;;;7.50;2.17;;;22.00;99.90;;;;;;4955025;29;20039;-86
2022/06/11 08:05:41;;;;;;;11.18;2.60;;;22.00;99.90;;;;;;4938200;29;20388;-86
2022/06/11 08:08:08;;;;;;;8.32;1.83;;;22.00;99.90;;;;;;4954625;29;20032;-86
2022/06/11 08:10:36;;;;;;;12.88;2.17;;;22.00;99.90;;;;;;4955064;29;20031;-86
2022/06/11 08:13:03;;;;;;;6.28;1.88;;;22.10;99.90;;;;;;4937493;29;20035;-86
2022/06/11 08:15:29;;;;;;;12.55;1.98;;;22.10;99.90;;;;;;4954778;29;20019;-88
2022/06/11 08:17:55;;;;;;;8.20;1.83;;;22.20;99.90;;;;;;4954986;29;20035;-88
2022/06/11 08:20:24;;;;;;;10.38;2.00;;;22.20;99.90;;;;;;4954804;29;20082;-87
2022/06/11 08:22:50;;;;;;;7.25;3.00;;;22.30;99.90;;;;;;4954317;29;20019;-87
2022/06/11 08:25:17;;;;;;;6.35;1.98;;;22.30;99.90;;;;;;4954725;29;20027;-86
2022/06/11 08:27:43;;;;;;;7.55;1.60;;;22.30;99.90;;;;;;4954735;29;20475;-87
2022/06/11 08:30:12;;;;;;;8.98;1.48;;;22.40;99.90;;;;;;4954456;29;20030;-87
2022/06/11 08:32:38;;;;;;;7.43;1.88;;;22.50;99.90;;;;;;4937414;29;20031;-86
2022/06/11 08:35:04;;;;;;;11.43;1.55;;;22.60;99.90;;;;;;4954480;29;20094;-86
2022/06/11 08:37:30;;;;;;;7.03;1.75;;;22.60;99.90;;;;;;4936584;28;20035;-86
2022/06/11 08:39:55;;;;;;;14.90;1.98;;;22.60;99.90;;;;;;4954437;29;20070;-87
2022/06/11 08:42:30;;;;;;;9.73;2.35;;;22.60;99.90;;;;;;4937450;29;20051;-87
2022/06/11 08:44:58;;;;;;;14.23;1.83;;;22.70;99.90;;;;;;4954406;29;20055;-87
2022/06/11 08:47:28;;;;;;;9.13;1.60;;;22.70;99.90;;;;;;4937364;29;20023;-87
2022/06/11 08:49:58;;;;;;;8.38;1.48;;;22.80;99.90;;;;;;4954406;29;20455;-87
2022/06/11 08:52:29;;;;;;;9.57;1.90;;;22.80;99.90;;;;;;4954120;29;20184;-88
2022/06/11 08:54:57;;;;;;;7.63;2.53;;;22.80;99.90;;;;;;4954269;29;20383;-89
2022/06/11 08:57:36;;;;;;;9.32;2.30;;;22.80;99.90;;;;;;4937153;29;20035;-87
2022/06/11 09:00:11;;;;;;;6.82;1.25;;;22.80;99.90;;;;;;4954153;29;20047;-86
2022/06/11 09:03:04;;;;;;;6.88;1.85;;;22.80;99.90;;;;;;4937149;29;20550;-87
2022/06/11 09:05:59;;;;;;;7.65;2.42;;;22.80;99.90;;;;;;4954118;29;20023;-86
2022/06/11 09:08:34;;;;;;;10.85;1.83;;;22.70;99.90;;;;;;4953632;29;20106;-88
2022/06/11 09:11:18;;;;;;;;;;;22.80;99.90;;;;;;4937019;29;20019;-86
2022/06/11 09:13:58;;;;;;;6.88;1.80;;;22.80;99.90;;;;;;4954066;29;19918;-87
2022/06/11 09:17:01;;;;;;;5.25;1.70;;;22.80;99.90;;;;;;4953922;29;20380;-88
2022/06/11 09:19:54;;;;;;;5.70;1.95;;;22.90;99.90;;;;;;4954172;29;20106;-86
2022/06/11 09:22:38;;;;;;;10.50;2.25;;;22.90;99.90;;;;;;4936575;29;20027;-87
2022/06/11 09:25:25;;;;;;;8.93;1.77;;;22.90;99.90;;;;;;4937049;29;20027;-87
2022/06/11 09:28:03;;;;;;;6.53;2.20;;;22.90;99.90;;;;;;4954041;29;20110;-87
2022/06/11 09:30:43;;;;;;;9.85;2.17;;;22.80;99.90;;;;;;4954013;29;20102;-87
2022/06/11 09:33:20;;;;;;;7.70;2.10;;;22.80;99.90;;;;;;4936755;29;20031;-87
2022/06/11 09:35:57;;;;;;;6.40;2.30;;;22.70;99.90;;;;;;4936897;29;20419;-87
2022/06/11 09:38:47;;;;;;;7.07;1.98;;;22.70;99.90;;;;;;4953764;29;20034;-87
2022/06/11 09:41:33;;;;;;;10.50;2.42;;;22.80;99.90;;;;;;4953944;29;20023;-87
2022/06/11 09:44:27;;;;;;;12.90;3.15;;;22.80;99.90;;;;;;4936203;29;20031;-88
2022/06/11 09:46:58;;;;;;;8.93;2.28;;;22.80;99.90;;;;;;4954036;29;20484;-88
2022/06/11 09:49:44;;;;;;;6.63;2.65;;;22.80;99.90;;;;;;4954713;28;20051;-86
2022/06/11 09:52:09;;;;;;;6.60;2.92;;;22.80;99.90;;;;;;4939865;29;20035;-87
2022/06/11 09:54:47;;;;;;;14.88;2.55;;;22.90;99.90;;;;;;4940151;29;20395;-87
2022/06/11 09:57:37;;;;;;;6.18;2.30;;;23.10;99.90;;;;;;4957510;29;20490;-88
2022/06/11 10:00:03;;;;;;;12.20;3.25;;;23.10;99.90;;;;;;4957313;29;20140;-87
2022/06/11 10:05:36;;;;;;;5.88;1.55;;;23.10;99.90;;;;;;4957378;29;20027;-86
2022/06/11 10:08:16;;;;;;;5.65;1.67;;;23.10;99.90;;;;;;4923870;29;20165;-88
2022/06/11 10:10:45;;;;;;;7.20;2.20;;;23.10;99.90;;;;;;4940085;29;20086;-88
2022/06/11 10:13:32;;;;;;;5.30;1.65;;;23.10;99.90;;;;;;4956952;29;20110;-88
2022/06/11 10:16:05;;;;;;;5.93;1.90;;;23.20;99.90;;;;;;4939744;29;20104;-87
2022/06/11 10:18:35;;;;;;;6.03;1.90;;;23.20;99.90;;;;;;4957180;29;20127;-87
2022/06/11 10:21:10;;;;;;;10.90;3.17;;;23.30;99.90;;;;;;4939866;29;20032;-86
2022/06/11 10:23:45;;;;;;;4.65;1.73;;;23.30;99.90;;;;;;4939521;29;20039;-87
2022/06/11 10:26:39;;;;;;;5.15;1.48;;;23.30;99.90;;;;;;4939766;29;20035;-88
2022/06/11 10:29:19;;;;;;;7.07;1.67;;;23.30;99.90;;;;;;4956764;29;20027;-87
2022/06/11 10:31:50;;;;;;;6.72;2.70;;;23.30;99.90;;;;;;4956948;29;20082;-87
2022/06/11 10:34:19;;;;;;;6.88;1.88;;;23.20;99.90;;;;;;4956647;29;20031;-88
2022/06/11 10:36:53;;;;;;;6.22;1.70;;;23.20;99.90;;;;;;4939481;29;20024;-88
2022/06/11 10:39:30;;;;;;;5.93;1.58;;;23.10;99.90;;;;;;4939565;29;20028;-87
2022/06/11 10:42:20;;;;;;;5.78;1.63;;;23.10;99.90;;;;;;4939632;29;20039;-88
2022/06/11 10:44:53;;;;;;;4.15;1.40;;;23.10;99.90;;;;;;4939400;29;20170;-88
2022/06/11 10:47:25;;;;;;;6.30;1.30;;;23.10;99.90;;;;;;4939338;29;20039;-89
2022/06/11 10:50:11;;;;;;;6.15;1.33;;;23.10;99.90;;;;;;4956535;29;20054;-88
2022/06/11 10:52:48;;;;;;;;;;;23.20;99.90;;;;;;4956626;29;20392;-89
2022/06/11 10:55:32;;;;;;;3.45;1.48;;;23.20;99.90;;;;;;4956612;29;19912;-88
2022/06/11 10:58:08;;;;;;;3.88;1.33;;;23.20;99.90;;;;;;4939328;29;20077;-88
2022/06/11 11:01:03;;;;;;;3.42;1.13;;;23.20;99.90;;;;;;4938730;29;20407;-88
2022/06/11 11:03:50;;;;;;;5.03;1.75;;;23.20;99.90;;;;;;4938950;29;20404;-88
2022/06/11 11:06:36;;;;;;;3.08;1.30;;;23.30;99.90;;;;;;4956302;29;20023;-89
2022/06/11 11:09:26;;;;;;;2.90;1.52;;;23.30;99.90;;;;;;4938727;29;20030;-88
2022/06/11 11:12:02;;;;;;;19.17;11.57;;;23.30;99.90;;;;;;4955817;29;20032;-88
2022/06/11 11:14:41;;;;;;;8.05;3.28;;;23.30;99.90;;;;;;4955970;29;20090;-88
2022/06/11 11:17:17;;;;;;;3.80;1.27;;;23.40;99.90;;;;;;4955957;29;20126;-88
2022/06/11 11:19:45;;;;;;;;;;;23.50;99.90;;;;;;4956669;29;20023;-88
2022/06/11 11:22:20;;;;;;;1.60;1.13;;;23.50;99.90;;;;;;4955477;29;20244;-88
2022/06/11 11:24:51;;;;;;;4.35;1.50;;;23.40;99.90;;;;;;4938776;29;20031;-87
2022/06/11 11:27:20;;;;;;;3.92;1.15;;;23.50;99.20;;;;;;4955813;29;20027;-88
2022/06/11 11:30:10;;;;;;;3.42;1.17;;;23.40;97.30;;;;;;4955800;29;20023;-88
2022/06/11 11:32:35;;;;;;;4.60;1.90;;;23.40;99.90;;;;;;4955819;29;20118;-89
2022/06/11 11:35:15;;;;;;;1.98;1.05;;;23.50;99.50;;;;;;4955756;29;20023;-88
2022/06/11 11:37:41;;;;;;;4.88;2.63;;;23.50;98.70;;;;;;4955424;29;20027;-87
2022/06/11 11:40:26;;;;;;;5.30;2.13;;;23.40;98.50;;;;;;4955551;29;20267;-87
2022/06/11 11:42:55;;;;;;;4.65;1.15;;;23.50;96.90;;;;;;4955653;29;20031;-88
2022/06/11 11:45:40;;;;;;;4.75;1.27;;;23.50;98.30;;;;;;4955517;29;20041;-87
2022/06/11 11:48:11;;;;;;;4.70;1.77;;;23.40;99.00;;;;;;4938343;29;20083;-87
2022/06/11 11:50:40;;;;;;;2.88;1.30;;;23.40;98.60;;;;;;4955518;29;20035;-87
2022/06/11 11:53:19;;;;;;;2.97;0.68;;;23.50;99.90;;;;;;4937764;29;20547;-88
2022/06/11 11:55:59;;;;;;;2.97;0.93;;;23.60;99.10;;;;;;4955032;29;20502;-89
2022/06/11 11:58:42;;;;;;;2.15;0.73;;;23.80;99.90;;;;;;4938688;29;20129;-88
2022/06/11 12:01:13;;;;;;;3.22;0.90;;;23.90;96.40;;;;;;4937763;29;20055;-87
2022/06/11 12:04:03;;;;;;;3.28;1.10;;;23.80;93.70;;;;;;4937700;29;20031;-89
2022/06/11 12:06:45;;;;;;;1.83;0.75;;;23.70;97.50;;;;;;4955090;29;20038;-87
2022/06/11 12:09:26;;;;;;;2.20;1.08;;;23.60;97.10;;;;;;4954824;29;20030;-90
2022/06/11 12:12:18;;;;;;;1.80;0.80;;;23.50;95.70;;;;;;4954365;28;20360;-87
2022/06/11 12:15:16;;;;;;;1.95;0.95;;;23.30;96.80;;;;;;4954920;29;20027;-87
2022/06/11 12:17:59;;;;;;;3.38;1.00;;;23.20;96.70;;;;;;4955010;29;20038;-87
2022/06/11 12:20:33;;;;;;;2.13;0.80;;;23.20;98.70;;;;;;4954930;29;20542;-87
2022/06/11 12:23:29;;;;;;;1.42;0.60;;;23.10;99.90;;;;;;4937395;29;20038;-87
2022/06/11 12:26:09;;;;;;;4.03;1.52;;;23.10;99.90;;;;;;4954912;29;20106;-87
2022/06/11 12:28:46;;;;;;;4.82;0.70;;;23.10;99.90;;;;;;4954783;29;20391;-87
2022/06/11 12:31:12;;;;;;;1.80;0.80;;;23.10;99.90;;;;;;4937547;29;20078;-88
2022/06/11 12:33:43;;;;;;;1.77;0.85;;;23.10;99.90;;;;;;4954494;29;20027;-88
2022/06/11 12:36:41;;;;;;;2.47;0.80;;;23.20;99.20;;;;;;4954571;29;20379;-87
2022/06/11 12:39:21;;;;;;;2.42;0.88;;;23.30;98.80;;;;;;4954509;29;20439;-87
2022/06/11 12:42:13;;;;;;;0.85;0.50;;;23.30;99.90;;;;;;4937300;29;20032;-87
2022/06/11 12:44:43;;;;;;;2.38;0.80;;;23.30;99.90;;;;;;4937451;29;20031;-88
2022/06/11 12:47:23;;;;;;;4.88;1.23;;;23.30;96.10;;;;;;4937208;29;20023;-88
2022/06/11 12:50:25;;;;;;;3.30;0.90;;;23.40;96.00;;;;;;4954487;29;20039;-88
2022/06/11 12:53:03;;;;;;;1.67;0.80;;;23.40;98.10;;;;;;4953859;29;20034;-88
2022/06/11 12:55:46;;;;;;;4.00;1.60;;;23.40;98.10;;;;;;4954272;29;20031;-88
2022/06/11 12:58:26;;;;;;;1.27;0.52;;;23.50;98.60;;;;;;4954328;29;20365;-88
2022/06/11 13:01:00;;;;;;;4.57;0.73;;;23.50;99.20;;;;;;4937026;29;20381;-87
2022/06/11 13:04:00;;;;;;;1.50;0.55;;;23.50;97.50;;;;;;4954225;29;20027;-87
2022/06/11 13:07:03;;;;;;;2.20;0.60;;;23.50;97.80;;;;;;4953936;29;20034;-87
2022/06/11 13:09:48;;;;;;;1.40;0.68;;;23.60;94.90;;;;;;4954144;29;20032;-88
2022/06/11 13:12:34;;;;;;;1.60;0.70;;;23.60;91.30;;;;;;4954201;29;20027;-87
2022/06/11 13:15:40;;;;;;;6.13;0.57;;;23.60;82.40;;;;;;4954167;29;20035;-88
2022/06/11 13:18:28;;;;;;;1.30;0.57;;;23.60;82.50;;;;;;4954212;29;20035;-88
2022/06/11 13:21:04;;;;;;;3.33;0.60;;;23.70;81.20;;;;;;4954202;29;20046;-88
2022/06/11 13:23:47;;;;;;;1.52;0.88;;;23.70;77.90;;;;;;4954575;28;20106;-87
2022/06/11 13:27:03;;;;;;;1.25;0.60;;;23.70;81.10;;;;;;4958036;29;20062;-88